Main page
METAR-TAF:

METAR-TAF

Airports :

Gwadar, Pakistan

Gwadar International Airport

latitude: 25-13-59N, longitude: 062-19-46E, elevation: 29 m

METAR: missing

Time: 00:18 (19:18 UTC)

Forecast

The report was made 3 hours and 48 minutes ago, at 15:30 UTC
Forecast valid from 21 at 18 UTC to 22 at 18 UTC
Wind 3 kt from variable directions
Visibility: 3000 m
smoke
Temporary
from 22 at 00 UTC to 22 at 04 UTC
Wind kt from the North
Visibility: 1000 m
mist
From 22 at 0600 UTC
Wind 5 kt from the South/Southwest with gusts up to 15 kt
Visibility: 5000 m
Few clouds at a height of 3000 ft
haze

TAF: OPGD 211530Z 2118/2218 VRB03KT 3000 FU NSC TEMPO 2200/2204 00000KT 1000 BR NSC FM220600 21005G15KT 5000 HZ FEW030

Weather observations and forecasts of more than 4000 airports (METAR and TAF reports).

The available stations are represented by yellow and red dots on the map.

Hover mouse over dot to see the name of the station.

Then click to see weather observations and forecasts.

To change the map : click on the green buttons with a black cross to zoom in, on the green button with a dash to zoom out, or on the green arrows for adjacent maps.


METAR-TAF: